createdAt,value
2022-11-26T00:00:17.375Z,6.08
2022-11-26T00:01:17.308Z,6.13
2022-11-26T00:02:17.422Z,6.04
2022-11-26T00:03:17.180Z,6.08
2022-11-26T00:04:17.038Z,6.24
2022-11-26T00:05:16.971Z,6.24
2022-11-26T00:06:16.870Z,6.30
2022-11-26T00:07:16.801Z,6.18
2022-11-26T00:08:16.815Z,6.13
2022-11-26T00:09:16.615Z,6.27
2022-11-26T00:10:16.532Z,6.32
2022-11-26T00:11:16.444Z,6.30
2022-11-26T00:12:16.362Z,6.29
2022-11-26T00:13:16.278Z,6.29
2022-11-26T00:14:16.194Z,6.15
2022-11-26T00:15:16.164Z,6.24
2022-11-26T00:16:16.070Z,6.27
2022-11-26T00:17:15.938Z,6.21
2022-11-26T00:18:15.857Z,6.41
2022-11-26T00:19:15.821Z,6.34
2022-11-26T00:20:15.687Z,6.27
2022-11-26T00:21:15.600Z,6.36
2022-11-26T00:22:15.519Z,6.36
2022-11-26T00:23:15.433Z,6.36
2022-11-26T00:24:15.347Z,6.37
2022-11-26T00:25:15.262Z,6.48
2022-11-26T00:26:15.179Z,6.36
2022-11-26T00:27:15.094Z,6.41
2022-11-26T00:28:15.012Z,6.42
2022-11-26T00:29:14.925Z,6.48
2022-11-26T00:30:14.847Z,6.47
2022-11-26T00:31:14.833Z,6.54
2022-11-26T00:32:14.732Z,6.57
2022-11-26T00:33:14.593Z,6.68
2022-11-26T00:34:14.504Z,6.66
2022-11-26T00:35:14.419Z,6.68
2022-11-26T00:36:14.336Z,6.68
2022-11-26T00:37:14.251Z,6.76
2022-11-26T00:38:14.168Z,6.76
2022-11-26T00:39:14.084Z,6.76
2022-11-26T00:40:14.000Z,6.69
2022-11-26T00:41:13.916Z,6.72
2022-11-26T00:42:13.833Z,6.73
2022-11-26T00:43:13.745Z,6.70
2022-11-26T00:44:13.663Z,6.76
2022-11-26T00:45:13.582Z,6.81
2022-11-26T00:46:13.589Z,6.76
2022-11-26T00:47:13.442Z,6.72
2022-11-26T00:48:13.328Z,6.72
2022-11-26T00:49:13.245Z,6.72
2022-11-26T00:50:13.156Z,6.75
2022-11-26T00:51:13.078Z,6.75
2022-11-26T00:52:12.989Z,6.80
2022-11-26T00:53:12.906Z,6.78
2022-11-26T00:54:12.821Z,6.83
2022-11-26T00:55:12.740Z,6.76
2022-11-26T00:56:12.655Z,6.72
2022-11-26T00:57:12.575Z,6.75
2022-11-26T00:58:12.487Z,6.86
2022-11-26T00:59:12.402Z,6.81
2022-11-26T01:00:12.318Z,6.73
2022-11-26T01:01:12.294Z,6.73
2022-11-26T01:02:12.236Z,6.75
2022-11-26T01:03:12.087Z,6.76
2022-11-26T01:04:11.982Z,6.84
2022-11-26T01:05:11.899Z,6.81
2022-11-26T01:06:11.814Z,6.90
2022-11-26T01:07:11.782Z,6.90
2022-11-26T01:08:11.645Z,6.90
2022-11-26T01:09:11.563Z,6.90
2022-11-26T01:10:11.478Z,6.94
2022-11-26T01:11:11.396Z,6.93
2022-11-26T01:12:11.311Z,6.93
2022-11-26T01:13:11.230Z,6.96
2022-11-26T01:14:11.143Z,6.93
2022-11-26T01:15:11.062Z,6.93
2022-11-26T01:16:11.028Z,7.06
2022-11-26T01:17:10.893Z,7.03
2022-11-26T01:18:10.808Z,7.08
2022-11-26T01:19:10.747Z,7.23
2022-11-26T01:20:10.641Z,7.29
2022-11-26T01:21:10.559Z,7.26
2022-11-26T01:22:10.472Z,7.17
2022-11-26T01:23:10.390Z,7.12
2022-11-26T01:24:10.306Z,7.17
2022-11-26T01:25:10.223Z,7.24
2022-11-26T01:26:10.137Z,7.21
2022-11-26T01:27:10.053Z,7.26
2022-11-26T01:28:09.972Z,7.30
2022-11-26T01:29:09.890Z,7.34
2022-11-26T01:30:09.805Z,7.37
2022-11-26T01:31:09.751Z,7.31
2022-11-26T01:32:09.695Z,7.37
2022-11-26T01:33:09.555Z,7.34
2022-11-26T01:34:09.521Z,7.35
2022-11-26T01:35:09.411Z,7.38
2022-11-26T01:36:09.305Z,7.31
2022-11-26T01:37:09.218Z,7.35
2022-11-26T01:38:09.137Z,7.44
2022-11-26T01:39:09.055Z,7.45
2022-11-26T01:40:09.017Z,7.55
2022-11-26T01:41:08.889Z,7.48
2022-11-26T01:42:08.801Z,7.55
2022-11-26T01:43:08.719Z,7.56
2022-11-26T01:44:08.633Z,7.56
2022-11-26T01:45:08.551Z,7.68
2022-11-26T01:46:08.511Z,7.72
2022-11-26T01:47:08.386Z,7.70
2022-11-26T01:48:08.305Z,7.70
2022-11-26T01:49:08.217Z,7.78
2022-11-26T01:50:08.138Z,7.78
2022-11-26T01:51:08.072Z,7.68
2022-11-26T01:52:07.970Z,7.73
2022-11-26T01:53:07.885Z,7.70
2022-11-26T01:54:07.805Z,7.76
2022-11-26T01:55:07.723Z,7.63
2022-11-26T01:56:07.637Z,7.82
2022-11-26T01:57:07.555Z,7.81
2022-11-26T01:58:07.472Z,7.78
2022-11-26T01:59:07.387Z,7.70
2022-11-26T02:00:07.304Z,7.88
2022-11-26T02:01:07.273Z,7.78
2022-11-26T02:02:07.174Z,7.83
2022-11-26T02:03:07.056Z,7.86
2022-11-26T02:04:06.973Z,7.86
2022-11-26T02:05:06.888Z,7.85
2022-11-26T02:06:06.807Z,7.85
2022-11-26T02:07:06.743Z,7.88
2022-11-26T02:08:06.841Z,7.97
2022-11-26T02:09:06.559Z,8.01
2022-11-26T02:10:06.477Z,7.96
2022-11-26T02:11:06.443Z,7.85
2022-11-26T02:12:06.311Z,7.88
2022-11-26T02:13:06.226Z,7.85
2022-11-26T02:14:06.151Z,7.88
2022-11-26T02:15:06.060Z,7.86
2022-11-26T02:16:06.041Z,7.83
2022-11-26T02:17:05.894Z,7.72
2022-11-26T02:18:06.061Z,7.73
2022-11-26T02:19:05.730Z,7.76
2022-11-26T02:20:05.647Z,7.78
2022-11-26T02:21:05.563Z,7.72
2022-11-26T02:22:05.482Z,7.79
2022-11-26T02:23:05.417Z,7.70
2022-11-26T02:24:05.564Z,7.75
2022-11-26T02:25:05.232Z,7.67
2022-11-26T02:26:05.149Z,7.70
2022-11-26T02:27:05.065Z,7.73
2022-11-26T02:28:04.988Z,7.73
2022-11-26T02:29:04.898Z,7.83
2022-11-26T02:30:04.817Z,7.82
2022-11-26T02:31:04.734Z,7.83
2022-11-26T02:32:04.725Z,7.90
2022-11-26T02:33:04.567Z,7.85
2022-11-26T02:34:04.489Z,7.88
2022-11-26T02:35:04.401Z,7.76
2022-11-26T02:36:04.318Z,7.82
2022-11-26T02:37:04.237Z,7.85
2022-11-26T02:38:04.150Z,7.73
2022-11-26T02:39:04.092Z,7.83
2022-11-26T02:40:03.986Z,7.90
2022-11-26T02:41:03.952Z,7.85
2022-11-26T02:42:03.823Z,7.85
2022-11-26T02:43:03.737Z,7.86
2022-11-26T02:44:03.654Z,7.88
2022-11-26T02:45:03.572Z,7.76
2022-11-26T02:46:03.605Z,7.76
2022-11-26T02:47:03.408Z,7.75
2022-11-26T02:48:03.322Z,7.75
2022-11-26T02:49:03.241Z,7.81
2022-11-26T02:50:03.157Z,7.76
2022-11-26T02:51:03.075Z,7.72
2022-11-26T02:52:02.990Z,7.70
2022-11-26T02:53:02.905Z,7.85
2022-11-26T02:54:02.825Z,7.70
2022-11-26T02:55:02.760Z,7.81
2022-11-26T02:56:02.671Z,7.76
2022-11-26T02:57:02.576Z,7.73
2022-11-26T02:58:02.494Z,7.91
2022-11-26T02:59:02.409Z,7.90
2022-11-26T03:00:02.333Z,7.91
2022-11-26T03:01:02.277Z,7.90
2022-11-26T03:02:02.167Z,8.01
2022-11-26T03:03:02.077Z,7.90
2022-11-26T03:04:02.090Z,7.96
2022-11-26T03:05:01.912Z,7.97
2022-11-26T03:06:01.834Z,7.94
2022-11-26T03:07:01.747Z,7.93
2022-11-26T03:08:01.663Z,8.00
2022-11-26T03:09:01.579Z,7.99
2022-11-26T03:10:01.503Z,7.93
2022-11-26T03:11:01.437Z,7.86
2022-11-26T03:12:01.436Z,7.90
2022-11-26T03:13:01.248Z,7.97
2022-11-26T03:14:01.171Z,7.96
2022-11-26T03:15:01.086Z,7.94
2022-11-26T03:16:01.049Z,8.04
2022-11-26T03:17:00.920Z,8.04
2022-11-26T03:18:00.836Z,8.00
2022-11-26T03:19:00.752Z,8.00
2022-11-26T03:20:00.669Z,8.04
2022-11-26T03:21:00.587Z,8.14
2022-11-26T03:22:00.505Z,8.01
2022-11-26T03:23:00.422Z,8.06
2022-11-26T03:24:00.339Z,8.04
2022-11-26T03:25:00.262Z,8.11
2022-11-26T03:26:00.174Z,8.12
2022-11-26T03:27:00.109Z,8.15
2022-11-26T03:28:00.009Z,8.14
2022-11-26T03:28:59.923Z,8.17
2022-11-26T03:29:59.844Z,8.18
2022-11-26T03:30:59.760Z,8.14
2022-11-26T03:31:59.770Z,8.14
2022-11-26T03:32:59.594Z,8.18
2022-11-26T03:33:59.514Z,8.17
2022-11-26T03:34:59.431Z,8.22
2022-11-26T03:35:59.348Z,8.24
2022-11-26T03:36:59.265Z,8.15
2022-11-26T03:37:59.182Z,8.11
2022-11-26T03:38:59.099Z,8.18
2022-11-26T03:39:59.066Z,8.14
2022-11-26T03:40:58.935Z,8.18
2022-11-26T03:41:58.852Z,8.18
2022-11-26T03:42:58.796Z,8.18
2022-11-26T03:43:58.689Z,8.18
2022-11-26T03:44:58.601Z,8.18
2022-11-26T03:45:58.590Z,8.19
2022-11-26T03:46:58.441Z,8.15
2022-11-26T03:47:58.357Z,8.24
2022-11-26T03:48:58.273Z,8.18
2022-11-26T03:49:58.191Z,8.19
2022-11-26T03:50:58.310Z,8.22
2022-11-26T03:51:58.033Z,8.19
2022-11-26T03:52:57.945Z,8.21
2022-11-26T03:53:57.863Z,8.22
2022-11-26T03:54:57.778Z,8.19
2022-11-26T03:55:57.696Z,8.14
2022-11-26T03:56:57.613Z,8.19
2022-11-26T03:57:57.531Z,8.04
2022-11-26T03:58:57.481Z,8.06
2022-11-26T03:59:57.367Z,8.00
2022-11-26T04:00:57.370Z,8.06
2022-11-26T04:01:57.247Z,7.97
2022-11-26T04:02:57.146Z,7.94
2022-11-26T04:03:57.040Z,7.86
2022-11-26T04:04:56.955Z,7.83
2022-11-26T04:05:56.870Z,7.97
2022-11-26T04:06:56.787Z,7.88
2022-11-26T04:07:56.789Z,7.86
2022-11-26T04:08:56.619Z,7.88
2022-11-26T04:09:56.538Z,7.88
2022-11-26T04:10:56.458Z,7.83
2022-11-26T04:11:56.379Z,7.88
2022-11-26T04:12:56.289Z,7.88
2022-11-26T04:13:56.209Z,7.88
2022-11-26T04:14:56.142Z,7.86
2022-11-26T04:15:56.040Z,7.86
2022-11-26T04:16:56.037Z,7.82
2022-11-26T04:17:55.876Z,7.83
2022-11-26T04:18:55.792Z,7.88
2022-11-26T04:19:55.712Z,7.78
2022-11-26T04:20:55.631Z,7.72
2022-11-26T04:21:55.547Z,7.78
2022-11-26T04:22:55.460Z,7.78
2022-11-26T04:23:55.380Z,7.70
2022-11-26T04:24:55.296Z,7.68
2022-11-26T04:25:55.211Z,7.60
2022-11-26T04:26:55.128Z,7.56
2022-11-26T04:27:55.047Z,7.57
2022-11-26T04:28:54.963Z,7.62
2022-11-26T04:29:54.879Z,7.59
2022-11-26T04:30:54.819Z,7.53
2022-11-26T04:31:54.798Z,7.48
2022-11-26T04:32:54.628Z,7.48
2022-11-26T04:33:54.604Z,7.45
2022-11-26T04:34:54.461Z,7.39
2022-11-26T04:35:54.379Z,7.41
2022-11-26T04:36:54.296Z,7.38
2022-11-26T04:37:54.215Z,7.20
2022-11-26T04:38:54.130Z,7.23
2022-11-26T04:39:54.047Z,7.17
2022-11-26T04:40:53.961Z,7.16
2022-11-26T04:41:53.879Z,7.02
2022-11-26T04:42:53.799Z,7.09
2022-11-26T04:43:53.723Z,6.98
2022-11-26T04:44:53.628Z,6.93
2022-11-26T04:45:53.582Z,6.81
2022-11-26T04:46:53.479Z,6.84
2022-11-26T04:47:53.376Z,6.80
2022-11-26T04:48:53.342Z,6.75
2022-11-26T04:49:53.207Z,6.66
2022-11-26T04:50:53.126Z,6.68
2022-11-26T04:51:53.043Z,6.68
2022-11-26T04:52:52.956Z,6.60
2022-11-26T04:53:55.759Z,6.47
2022-11-26T04:54:52.788Z,6.44
2022-11-26T04:55:52.704Z,6.36
2022-11-26T04:56:52.620Z,6.30
2022-11-26T04:57:52.538Z,6.30
2022-11-26T04:58:52.452Z,6.17
2022-11-26T04:59:52.367Z,6.10
2022-11-26T05:00:52.355Z,6.06
2022-11-26T05:01:52.198Z,6.11
2022-11-26T05:02:52.167Z,6.00
2022-11-26T05:03:52.030Z,5.92
2022-11-26T05:04:51.946Z,5.90
2022-11-26T05:05:51.860Z,5.90
2022-11-26T05:06:51.776Z,5.83
2022-11-26T05:07:51.737Z,5.86
2022-11-26T05:08:51.606Z,5.74
2022-11-26T05:09:51.525Z,5.72
2022-11-26T05:10:51.438Z,5.70
2022-11-26T05:11:51.352Z,5.65
2022-11-26T05:12:51.270Z,5.63
2022-11-26T05:13:51.533Z,5.59
2022-11-26T05:14:51.103Z,5.52
2022-11-26T05:15:51.015Z,5.49
2022-11-26T05:16:50.986Z,5.38
2022-11-26T05:17:50.844Z,5.36
2022-11-26T05:18:50.783Z,5.35
2022-11-26T05:19:50.676Z,5.38
2022-11-26T05:20:50.589Z,5.32
2022-11-26T05:21:50.505Z,5.31
2022-11-26T05:22:50.420Z,5.29
2022-11-26T05:23:50.332Z,5.28
2022-11-26T05:24:50.249Z,5.28
2022-11-26T05:25:50.165Z,5.24
2022-11-26T05:26:53.751Z,5.29
2022-11-26T05:27:49.993Z,5.36
2022-11-26T05:28:49.999Z,5.34
2022-11-26T05:29:49.824Z,5.29
2022-11-26T05:30:49.737Z,5.34
2022-11-26T05:31:49.781Z,5.35
2022-11-26T05:32:49.569Z,5.29
2022-11-26T05:33:49.482Z,5.32
2022-11-26T05:34:49.421Z,5.31
2022-11-26T05:35:49.360Z,5.39
2022-11-26T05:36:49.228Z,5.28
2022-11-26T05:37:49.143Z,5.28
2022-11-26T05:38:49.058Z,5.23
2022-11-26T05:39:48.972Z,5.20
2022-11-26T05:40:48.986Z,5.21
2022-11-26T05:41:48.804Z,5.21
2022-11-26T05:42:48.715Z,5.14
2022-11-26T05:43:48.630Z,5.14
2022-11-26T05:44:48.547Z,5.11
2022-11-26T05:45:48.486Z,5.18
2022-11-26T05:46:48.378Z,5.11
2022-11-26T05:47:48.285Z,5.18
2022-11-26T05:48:48.202Z,5.18
2022-11-26T05:49:48.114Z,5.23
2022-11-26T05:50:53.158Z,5.24
2022-11-26T05:51:47.942Z,5.13
2022-11-26T05:52:47.871Z,5.08
2022-11-26T05:53:47.774Z,4.80
2022-11-26T05:54:47.689Z,4.83
2022-11-26T05:55:47.750Z,4.96
2022-11-26T05:56:47.518Z,4.84
2022-11-26T05:57:47.430Z,4.79
2022-11-26T05:58:47.545Z,4.79
2022-11-26T05:59:47.258Z,4.77
2022-11-26T06:00:47.172Z,4.76
2022-11-26T06:01:47.166Z,4.77
2022-11-26T06:02:47.186Z,4.76
2022-11-26T06:03:47.015Z,4.79
2022-11-26T06:04:46.830Z,4.68
2022-11-26T06:05:46.948Z,4.69
2022-11-26T06:06:46.684Z,4.61
2022-11-26T06:07:46.642Z,4.68
2022-11-26T06:08:46.489Z,4.58
2022-11-26T06:09:46.403Z,4.55
2022-11-26T06:10:46.468Z,4.55
2022-11-26T06:11:46.229Z,4.40
2022-11-26T06:12:46.145Z,4.48
2022-11-26T06:13:46.059Z,4.41
2022-11-26T06:14:46.374Z,4.46
2022-11-26T06:15:45.886Z,4.44
2022-11-26T06:16:45.864Z,4.52
2022-11-26T06:17:45.765Z,4.52
2022-11-26T06:18:45.879Z,4.46
2022-11-26T06:19:45.541Z,4.46
2022-11-26T06:20:45.459Z,4.43
2022-11-26T06:21:45.371Z,4.52
2022-11-26T06:22:45.306Z,4.30
2022-11-26T06:23:52.913Z,4.43
2022-11-26T06:24:45.113Z,4.46
2022-11-26T06:25:45.028Z,4.47
2022-11-26T06:26:44.943Z,4.46
2022-11-26T06:27:44.854Z,4.52
2022-11-26T06:28:44.922Z,4.48
2022-11-26T06:29:44.692Z,4.52
2022-11-26T06:30:44.600Z,4.54
2022-11-26T06:31:44.562Z,4.61
2022-11-26T06:32:44.425Z,4.52
2022-11-26T06:33:44.340Z,4.47
2022-11-26T06:34:44.680Z,4.65
2022-11-26T06:35:44.168Z,4.52
2022-11-26T06:36:44.106Z,4.65
2022-11-26T06:37:43.995Z,4.68
2022-11-26T06:38:43.929Z,4.66
2022-11-26T06:39:43.874Z,4.65
2022-11-26T06:40:43.741Z,4.65
2022-11-26T06:41:43.652Z,4.68
2022-11-26T06:42:43.567Z,4.62
2022-11-26T06:43:43.482Z,4.59
2022-11-26T06:44:43.396Z,4.59
2022-11-26T06:45:43.379Z,4.52
2022-11-26T06:46:43.274Z,4.55
2022-11-26T06:47:43.137Z,4.50
2022-11-26T06:48:43.053Z,4.59
2022-11-26T06:49:42.965Z,4.61
2022-11-26T06:50:42.886Z,4.62
2022-11-26T06:51:42.793Z,4.59
2022-11-26T06:52:42.708Z,4.55
2022-11-26T06:53:42.621Z,4.58
2022-11-26T06:54:42.556Z,4.59
2022-11-26T06:55:42.449Z,4.65
2022-11-26T06:56:42.365Z,4.56
2022-11-26T06:57:42.276Z,4.59
2022-11-26T06:58:42.195Z,4.61
2022-11-26T06:59:42.117Z,4.64
2022-11-26T07:00:42.021Z,4.65
2022-11-26T07:01:41.975Z,4.69
2022-11-26T07:02:41.895Z,4.69
2022-11-26T07:03:41.760Z,4.66
2022-11-26T07:04:41.783Z,4.76
2022-11-26T07:05:41.590Z,4.74
2022-11-26T07:06:41.506Z,4.74
2022-11-26T07:07:41.468Z,4.69
2022-11-26T07:08:41.336Z,4.69
2022-11-26T07:09:41.249Z,4.74
2022-11-26T07:10:46.087Z,4.62
2022-11-26T07:11:41.078Z,4.56
2022-11-26T07:12:40.989Z,4.62
2022-11-26T07:13:40.905Z,4.69
2022-11-26T07:14:41.150Z,4.66
2022-11-26T07:15:40.770Z,4.61
2022-11-26T07:16:40.722Z,4.59
2022-11-26T07:17:40.562Z,4.61
2022-11-26T07:18:40.479Z,4.56
2022-11-26T07:19:40.390Z,4.68
2022-11-26T07:20:40.305Z,4.61
2022-11-26T07:21:40.268Z,4.54
2022-11-26T07:22:40.135Z,4.55
2022-11-26T07:23:40.049Z,4.54
2022-11-26T07:24:40.360Z,4.55
2022-11-26T07:25:39.876Z,4.47
2022-11-26T07:26:39.808Z,4.47
2022-11-26T07:27:39.703Z,4.52
2022-11-26T07:28:39.616Z,4.54
2022-11-26T07:29:39.532Z,4.50
2022-11-26T07:30:39.449Z,4.46
2022-11-26T07:31:39.421Z,4.43
2022-11-26T07:32:39.276Z,4.46
2022-11-26T07:33:39.189Z,4.34
2022-11-26T07:34:39.465Z,4.38
2022-11-26T07:35:39.016Z,4.44
2022-11-26T07:36:38.933Z,4.44
2022-11-26T07:37:38.844Z,4.46
2022-11-26T07:38:38.761Z,4.44
2022-11-26T07:39:38.672Z,4.50
2022-11-26T07:40:38.586Z,4.37
2022-11-26T07:41:38.503Z,4.48
2022-11-26T07:42:38.441Z,4.52
2022-11-26T07:43:38.338Z,4.47
2022-11-26T07:44:38.604Z,4.43
2022-11-26T07:45:38.209Z,4.44
2022-11-26T07:46:38.104Z,4.40
2022-11-26T07:47:37.989Z,4.36
2022-11-26T07:48:37.901Z,4.30
2022-11-26T07:49:37.813Z,4.34
2022-11-26T07:50:37.730Z,4.34
2022-11-26T07:51:37.641Z,4.29
2022-11-26T07:52:37.556Z,4.30
2022-11-26T07:53:37.468Z,4.30
2022-11-26T07:54:37.695Z,4.43
2022-11-26T07:55:37.303Z,4.44
2022-11-26T07:56:37.218Z,4.54
2022-11-26T07:57:37.126Z,4.54
2022-11-26T07:58:37.062Z,4.55
2022-11-26T07:59:36.952Z,4.50
2022-11-26T08:00:36.872Z,4.54
2022-11-26T08:01:36.903Z,4.43
2022-11-26T08:02:36.768Z,4.44
2022-11-26T08:03:36.611Z,4.52
2022-11-26T08:04:36.684Z,4.58
2022-11-26T08:05:36.440Z,4.54
2022-11-26T08:06:36.360Z,4.55
2022-11-26T08:07:36.285Z,4.54
2022-11-26T08:08:36.192Z,4.54
2022-11-26T08:09:36.100Z,4.55
2022-11-26T08:10:36.013Z,4.54
2022-11-26T08:11:35.925Z,4.61
2022-11-26T08:12:35.841Z,4.58
2022-11-26T08:13:35.751Z,4.58
2022-11-26T08:14:35.988Z,4.64
2022-11-26T08:15:35.583Z,4.69
2022-11-26T08:16:35.687Z,4.73
2022-11-26T08:17:35.411Z,4.74
2022-11-26T08:18:35.328Z,4.77
2022-11-26T08:19:35.239Z,4.83
2022-11-26T08:20:35.155Z,4.88
2022-11-26T08:21:35.068Z,4.77
2022-11-26T08:22:34.982Z,4.83
2022-11-26T08:23:34.897Z,4.88
2022-11-26T08:24:34.816Z,4.84
2022-11-26T08:25:34.728Z,4.93
2022-11-26T08:26:39.662Z,4.95
2022-11-26T08:27:34.553Z,4.93
2022-11-26T08:28:34.470Z,5.06
2022-11-26T08:29:34.388Z,5.00
2022-11-26T08:30:34.319Z,5.18
2022-11-26T08:31:34.244Z,5.23
2022-11-26T08:32:34.127Z,5.32
2022-11-26T08:33:34.046Z,5.31
2022-11-26T08:34:33.960Z,5.36
2022-11-26T08:35:59.069Z,5.49
2022-11-26T08:36:33.789Z,5.57
2022-11-26T08:37:33.901Z,5.47
2022-11-26T08:38:33.618Z,5.53
2022-11-26T08:39:33.533Z,5.50
2022-11-26T08:40:33.446Z,5.63
2022-11-26T08:41:33.362Z,5.68
2022-11-26T08:42:33.279Z,5.74
2022-11-26T08:43:58.737Z,5.85
2022-11-26T08:44:33.109Z,5.96
2022-11-26T08:45:33.027Z,5.93
2022-11-26T08:46:32.994Z,6.00
2022-11-26T08:47:32.854Z,6.11
2022-11-26T08:48:32.771Z,6.21
2022-11-26T08:49:32.696Z,6.27
2022-11-26T08:50:32.602Z,6.34
2022-11-26T08:51:32.517Z,6.42
2022-11-26T08:52:32.432Z,6.37
2022-11-26T08:53:32.346Z,6.36
2022-11-26T08:54:32.264Z,6.42
2022-11-26T08:55:58.856Z,6.41
2022-11-26T08:56:32.095Z,6.54
2022-11-26T08:57:32.010Z,6.68
2022-11-26T08:58:31.930Z,6.70
2022-11-26T08:59:31.842Z,6.70
2022-11-26T09:00:31.761Z,6.66
2022-11-26T09:01:31.707Z,6.63
2022-11-26T09:02:31.615Z,6.65
2022-11-26T09:03:31.506Z,6.75
2022-11-26T09:04:31.425Z,6.73
2022-11-26T09:05:31.336Z,6.81
2022-11-26T09:06:31.254Z,6.88
2022-11-26T09:07:31.244Z,6.83
2022-11-26T09:08:31.088Z,6.80
2022-11-26T09:09:31.252Z,6.88
2022-11-26T09:10:30.970Z,6.88
2022-11-26T09:11:30.837Z,6.90
2022-11-26T09:12:30.754Z,6.94
2022-11-26T09:13:30.670Z,6.88
2022-11-26T09:14:30.652Z,6.90
2022-11-26T09:15:30.501Z,7.01
2022-11-26T09:16:30.444Z,7.05
2022-11-26T09:17:30.334Z,7.08
2022-11-26T09:18:30.273Z,7.17
2022-11-26T09:19:30.169Z,7.29
2022-11-26T09:20:30.085Z,7.44
2022-11-26T09:21:30.003Z,7.60
2022-11-26T09:22:29.920Z,7.68
2022-11-26T09:23:29.835Z,7.53
2022-11-26T09:24:29.760Z,7.59
2022-11-26T09:25:29.674Z,7.70
2022-11-26T09:26:29.589Z,7.73
2022-11-26T09:27:29.504Z,7.68
2022-11-26T09:28:29.422Z,7.72
2022-11-26T09:29:29.340Z,7.79
2022-11-26T09:30:29.257Z,7.81
2022-11-26T09:31:29.223Z,7.86
2022-11-26T09:32:33.921Z,7.81
2022-11-26T09:33:29.010Z,7.75
2022-11-26T09:34:28.965Z,7.70
2022-11-26T09:35:28.844Z,7.81
2022-11-26T09:36:28.762Z,7.79
2022-11-26T09:37:28.678Z,7.64
2022-11-26T09:38:28.597Z,7.72
2022-11-26T09:39:28.513Z,7.76
2022-11-26T09:40:28.432Z,7.76
2022-11-26T09:41:28.348Z,7.76
2022-11-26T09:42:28.290Z,7.72
2022-11-26T09:43:28.182Z,7.86
2022-11-26T09:44:28.100Z,7.83
2022-11-26T09:45:28.073Z,7.82
2022-11-26T09:46:36.776Z,7.86
2022-11-26T09:47:27.861Z,7.90
2022-11-26T09:48:27.770Z,7.86
2022-11-26T09:49:27.687Z,7.96
2022-11-26T09:50:27.625Z,8.01
2022-11-26T09:51:27.528Z,8.07
2022-11-26T09:52:27.439Z,8.18
2022-11-26T09:53:27.363Z,8.22
2022-11-26T09:54:27.277Z,8.22
2022-11-26T09:55:27.203Z,8.29
2022-11-26T09:56:27.113Z,8.29
2022-11-26T09:57:27.030Z,8.29
2022-11-26T09:58:27.682Z,8.30
2022-11-26T09:59:26.865Z,8.47
2022-11-26T10:00:26.784Z,8.34
2022-11-26T10:01:26.749Z,8.40
2022-11-26T10:02:26.700Z,8.52
2022-11-26T10:03:26.533Z,8.54
2022-11-26T10:04:26.453Z,8.69
2022-11-26T10:05:26.371Z,8.69
2022-11-26T10:06:26.307Z,8.76
2022-11-26T10:07:26.277Z,8.84
2022-11-26T10:08:26.126Z,8.87
2022-11-26T10:09:26.142Z,8.97
2022-11-26T10:10:25.958Z,8.93
2022-11-26T10:11:25.877Z,9.05
2022-11-26T10:12:26.568Z,9.16
2022-11-26T10:13:25.712Z,9.29
2022-11-26T10:14:25.731Z,9.47
2022-11-26T10:15:25.549Z,9.83
2022-11-26T10:16:25.520Z,10.16
2022-11-26T10:17:25.386Z,10.55
2022-11-26T10:18:25.302Z,10.75
2022-11-26T10:19:25.221Z,10.74
2022-11-26T10:20:25.143Z,10.83
2022-11-26T10:21:37.997Z,10.98
2022-11-26T10:22:24.999Z,11.26
2022-11-26T10:23:24.899Z,11.28
2022-11-26T10:24:24.820Z,10.81
2022-11-26T10:25:24.783Z,10.74
2022-11-26T10:26:24.660Z,10.55
2022-11-26T10:27:24.582Z,10.71
2022-11-26T10:28:24.501Z,10.75
2022-11-26T10:29:24.422Z,10.84
2022-11-26T10:30:24.341Z,10.98
2022-11-26T10:31:24.333Z,11.06
2022-11-26T10:32:24.182Z,11.42
2022-11-26T10:33:24.103Z,11.50
2022-11-26T10:34:24.025Z,11.60
2022-11-26T10:35:23.946Z,11.64
2022-11-26T10:36:23.864Z,11.67
2022-11-26T10:37:23.791Z,11.76
2022-11-26T10:38:23.724Z,11.79
2022-11-26T10:39:23.630Z,12.02
2022-11-26T10:40:23.548Z,12.03
2022-11-26T10:41:23.470Z,11.93
2022-11-26T10:42:23.392Z,11.57
2022-11-26T10:43:23.312Z,11.35
2022-11-26T10:44:23.233Z,11.26
2022-11-26T10:45:23.157Z,11.39
2022-11-26T10:46:23.150Z,11.51
2022-11-26T10:47:22.998Z,11.41
2022-11-26T10:48:22.933Z,11.20
2022-11-26T10:49:22.845Z,11.10
2022-11-26T10:50:46.538Z,11.11
2022-11-26T10:52:22.609Z,11.39
2022-11-26T10:53:22.531Z,11.39
2022-11-26T10:54:22.469Z,11.24
2022-11-26T10:55:22.368Z,11.35
2022-11-26T10:56:22.290Z,11.32
2022-11-26T10:57:22.214Z,11.32
2022-11-26T10:58:22.135Z,11.05
2022-11-26T10:59:22.065Z,10.99
2022-11-26T11:00:21.974Z,10.99
2022-11-26T11:01:21.964Z,11.02
2022-11-26T11:02:21.871Z,11.16
2022-11-26T11:03:38.213Z,11.17
2022-11-26T11:04:21.661Z,11.24
2022-11-26T11:05:21.579Z,11.16
2022-11-26T11:06:21.501Z,11.28
2022-11-26T11:07:21.443Z,11.31
2022-11-26T11:08:21.393Z,11.16
2022-11-26T11:09:21.265Z,11.05
2022-11-26T11:10:21.203Z,11.06
2022-11-26T11:11:21.118Z,11.28
2022-11-26T11:12:21.029Z,11.65
2022-11-26T11:13:20.950Z,11.97
2022-11-26T11:14:20.873Z,12.33
2022-11-26T11:15:20.795Z,11.81
2022-11-26T11:16:20.815Z,11.69
2022-11-26T11:17:20.636Z,11.93
2022-11-26T11:18:20.604Z,11.84
2022-11-26T11:19:20.479Z,11.72
2022-11-26T11:20:20.402Z,11.86
2022-11-26T11:21:20.326Z,11.87
2022-11-26T11:22:20.246Z,12.00
2022-11-26T11:23:20.168Z,12.26
2022-11-26T11:24:20.191Z,12.02
2022-11-26T11:25:20.015Z,12.06
2022-11-26T11:26:20.157Z,12.13
2022-11-26T11:27:19.858Z,12.31
2022-11-26T11:28:19.781Z,12.89
2022-11-26T11:29:19.705Z,13.10
2022-11-26T11:30:19.626Z,12.77
2022-11-26T11:31:19.719Z,12.30
2022-11-26T11:32:19.472Z,11.71
2022-11-26T11:33:19.400Z,11.35
2022-11-26T11:34:19.319Z,11.00
2022-11-26T11:35:19.241Z,10.95
2022-11-26T11:36:19.164Z,10.77
2022-11-26T11:37:19.087Z,10.83
2022-11-26T11:38:19.011Z,10.81
2022-11-26T11:39:18.932Z,10.81
2022-11-26T11:40:18.855Z,10.74
2022-11-26T11:41:18.779Z,10.60
2022-11-26T11:42:18.720Z,10.62
2022-11-26T11:43:18.620Z,10.66
2022-11-26T11:44:18.545Z,10.44
2022-11-26T11:45:18.461Z,10.53
2022-11-26T11:46:18.446Z,10.59
2022-11-26T11:47:18.305Z,10.53
2022-11-26T11:48:18.227Z,10.59
2022-11-26T11:49:18.171Z,10.55
2022-11-26T11:50:18.074Z,10.59
2022-11-26T11:51:17.993Z,10.44
2022-11-26T11:52:17.916Z,10.53
2022-11-26T11:53:17.835Z,10.59
2022-11-26T11:54:17.752Z,10.56
2022-11-26T11:55:17.674Z,10.60
2022-11-26T11:56:17.598Z,10.66
2022-11-26T11:57:17.530Z,10.74
2022-11-26T11:58:17.452Z,10.83
2022-11-26T11:59:17.358Z,10.63
2022-11-26T12:00:17.289Z,10.60
2022-11-26T12:01:17.199Z,10.59
2022-11-26T12:02:17.253Z,10.73
2022-11-26T12:03:17.040Z,10.74
2022-11-26T12:04:19.596Z,10.87
2022-11-26T12:05:16.884Z,10.75
2022-11-26T12:06:16.802Z,10.75
2022-11-26T12:07:16.840Z,10.75
2022-11-26T12:08:16.644Z,10.81
2022-11-26T12:09:16.565Z,10.78
2022-11-26T12:10:16.488Z,10.91
2022-11-26T12:11:16.406Z,10.80
2022-11-26T12:12:16.331Z,10.73
2022-11-26T12:13:16.298Z,10.77
2022-11-26T12:14:16.190Z,10.71
2022-11-26T12:15:16.190Z,10.59
2022-11-26T12:16:16.050Z,10.58
2022-11-26T12:17:15.932Z,10.56
2022-11-26T12:18:15.852Z,10.58
2022-11-26T12:19:15.773Z,10.56
2022-11-26T12:20:15.756Z,10.56
2022-11-26T12:21:15.612Z,10.59
2022-11-26T12:22:15.536Z,10.58
2022-11-26T12:23:19.954Z,10.62
2022-11-26T12:24:15.375Z,10.33
2022-11-26T12:25:15.300Z,10.46
2022-11-26T12:26:15.215Z,10.55
2022-11-26T12:27:15.135Z,10.59
2022-11-26T12:28:15.057Z,10.58
2022-11-26T12:29:14.978Z,10.44
2022-11-26T12:30:14.922Z,10.23
2022-11-26T12:31:14.869Z,10.39
2022-11-26T12:32:14.773Z,10.25
2022-11-26T12:33:14.658Z,10.19
2022-11-26T12:34:14.578Z,10.01
2022-11-26T12:35:14.500Z,9.89
2022-11-26T12:36:14.426Z,9.93
2022-11-26T12:37:14.489Z,9.90
2022-11-26T12:38:14.258Z,9.90
2022-11-26T12:39:14.178Z,9.93
2022-11-26T12:40:14.107Z,9.96
2022-11-26T12:41:14.021Z,9.92
2022-11-26T12:42:13.940Z,9.89
2022-11-26T12:43:13.859Z,9.89
2022-11-26T12:44:13.780Z,9.89
2022-11-26T12:45:17.449Z,9.75
2022-11-26T12:46:13.700Z,9.61
2022-11-26T12:47:13.536Z,9.53
2022-11-26T12:48:13.657Z,9.64
2022-11-26T12:49:13.432Z,9.65
2022-11-26T12:50:13.390Z,9.74
2022-11-26T12:51:13.242Z,9.63
2022-11-26T12:52:13.137Z,9.68
2022-11-26T12:53:13.054Z,9.78
2022-11-26T12:54:12.972Z,9.58
2022-11-26T12:55:12.895Z,9.61
2022-11-26T12:56:12.885Z,9.53
2022-11-26T12:57:12.729Z,9.67
2022-11-26T12:58:12.657Z,9.71
2022-11-26T12:59:12.570Z,9.75
2022-11-26T13:00:12.577Z,9.70
2022-11-26T13:01:12.461Z,9.67
2022-11-26T13:02:12.441Z,9.72
2022-11-26T13:03:12.243Z,9.70
2022-11-26T13:04:36.570Z,9.80
2022-11-26T13:05:12.084Z,9.67
2022-11-26T13:06:12.003Z,9.75
2022-11-26T13:07:11.978Z,9.70
2022-11-26T13:08:11.861Z,9.71
2022-11-26T13:09:11.783Z,9.70
2022-11-26T13:10:11.764Z,9.61
2022-11-26T13:11:11.613Z,9.56
2022-11-26T13:12:11.514Z,9.56
2022-11-26T13:13:11.434Z,9.53